Time;durP1;ratioP1;P1;durP2;ratioP2;P2;SDS_P1;SDS_P2;PMS_P1;PMS_P2;Temp;Humidity;BMP_temperature;BMP_pressure;BME280_temperature;BME280_humidity;BME280_pressure;Samples;Min_cycle;Max_cycle;Signal;HPM_P1;HPM_P2
2022/07/23 00:00:33;;;;;;;4.82;2.40;;;14.00;99.90;;;;;;5113452;27;20043;-73
2022/07/23 00:02:59;;;;;;;3.22;2.20;;;14.00;99.90;;;;;;5110598;28;20100;-71
2022/07/23 00:05:25;;;;;;;3.88;2.13;;;13.90;99.90;;;;;;5113467;28;20071;-72
2022/07/23 00:07:51;;;;;;;4.60;2.33;;;13.90;99.90;;;;;;5111371;28;20043;-73
2022/07/23 00:10:17;;;;;;;4.25;2.65;;;13.80;99.90;;;;;;5113370;28;20507;-73
2022/07/23 00:12:43;;;;;;;4.55;2.60;;;13.80;99.90;;;;;;5112861;28;20039;-74
2022/07/23 00:15:10;;;;;;;4.47;2.58;;;13.70;99.90;;;;;;5112078;28;20036;-73
2022/07/23 00:17:35;;;;;;;3.88;2.53;;;13.70;99.90;;;;;;5113096;28;20036;-73
2022/07/23 00:20:01;;;;;;;5.18;2.45;;;13.60;99.90;;;;;;5113749;28;20513;-74
2022/07/23 00:22:28;;;;;;;4.80;2.70;;;13.50;99.90;;;;;;5113729;28;20028;-74
2022/07/23 00:24:54;;;;;;;4.55;2.58;;;13.40;99.90;;;;;;5112679;28;20505;-74
2022/07/23 00:27:23;;;;;;;4.53;2.38;;;13.60;99.90;;;;;;5114427;28;20040;-74
2022/07/23 00:29:49;;;;;;;3.78;2.67;;;13.40;99.90;;;;;;5112109;28;20050;-73
2022/07/23 00:32:15;;;;;;;4.35;2.65;;;13.70;99.90;;;;;;5113721;28;20039;-74
2022/07/23 00:34:41;;;;;;;5.15;2.90;;;13.30;99.90;;;;;;5114169;28;20075;-74
2022/07/23 00:37:06;;;;;;;5.68;2.88;;;13.20;99.90;;;;;;5113276;28;20062;-74
2022/07/23 00:39:32;;;;;;;4.47;2.80;;;13.20;99.90;;;;;;5112682;28;20047;-75
2022/07/23 00:41:57;;;;;;;4.55;3.10;;;13.10;99.90;;;;;;5111957;28;20088;-74
2022/07/23 00:44:28;;;;;;;5.22;2.95;;;13.10;99.90;;;;;;5112227;28;20078;-74
2022/07/23 00:46:56;;;;;;;4.38;2.90;;;13.00;99.90;;;;;;5113941;28;20050;-75
2022/07/23 00:49:27;;;;;;;6.13;2.92;;;13.40;99.90;;;;;;5112450;28;20043;-75
2022/07/23 00:51:54;;;;;;;5.60;3.17;;;13.00;99.90;;;;;;5112658;28;20049;-74
2022/07/23 00:54:23;;;;;;;5.80;3.35;;;13.00;99.90;;;;;;5114190;28;20479;-74
2022/07/23 00:56:49;;;;;;;5.35;3.17;;;12.90;99.90;;;;;;5100676;28;20567;-74
2022/07/23 00:59:14;;;;;;;4.20;3.00;;;12.90;99.90;;;;;;5109963;28;20036;-75
2022/07/23 01:01:40;;;;;;;;;;;12.90;99.90;;;;;;5113252;28;20066;-74
2022/07/23 01:04:06;;;;;;;3.83;2.75;;;12.80;99.90;;;;;;5111411;28;20299;-75
2022/07/23 01:06:36;;;;;;;4.32;2.97;;;12.90;99.90;;;;;;5114310;28;20112;-75
2022/07/23 01:09:04;;;;;;;5.50;3.30;;;12.80;99.90;;;;;;5109804;28;20080;-74
2022/07/23 01:11:31;;;;;;;4.50;3.03;;;12.70;99.90;;;;;;5107988;28;20051;-74
2022/07/23 01:13:57;;;;;;;5.20;3.25;;;12.80;99.90;;;;;;5113171;28;20129;-74
2022/07/23 01:16:22;;;;;;;;;;;12.70;99.90;;;;;;5113164;28;20065;-75
2022/07/23 01:18:48;;;;;;;5.78;3.65;;;12.80;99.90;;;;;;5112626;28;20401;-74
2022/07/23 01:21:17;;;;;;;;;;;12.70;99.90;;;;;;5112042;28;20069;-75
2022/07/23 01:23:43;;;;;;;5.05;3.42;;;12.70;99.90;;;;;;5112679;28;20030;-75
2022/07/23 01:26:09;;;;;;;5.95;3.47;;;12.80;99.90;;;;;;5111074;28;20043;-75
2022/07/23 01:28:35;;;;;;;;;;;12.70;99.90;;;;;;5113898;28;20036;-75
2022/07/23 01:31:00;;;;;;;5.38;3.30;;;12.70;99.90;;;;;;5111721;28;20345;-75
2022/07/23 01:33:26;;;;;;;;;;;12.80;99.90;;;;;;5111890;28;20441;-74
2022/07/23 01:35:52;;;;;;;4.32;3.05;;;12.80;99.90;;;;;;5113084;28;19919;-74
2022/07/23 01:38:17;;;;;;;5.03;3.25;;;12.80;99.90;;;;;;5111668;28;20071;-75
2022/07/23 01:40:46;;;;;;;;;;;12.80;99.90;;;;;;5112834;28;20444;-75
2022/07/23 01:43:12;;;;;;;5.43;3.40;;;12.90;99.90;;;;;;5111705;28;19927;-75
2022/07/23 01:45:41;;;;;;;;;;;12.90;99.90;;;;;;5113123;28;20036;-74
2022/07/23 01:48:07;;;;;;;6.40;3.60;;;13.00;99.90;;;;;;5111252;28;19919;-75
2022/07/23 01:50:32;;;;;;;6.22;3.70;;;13.00;99.90;;;;;;5112225;28;20042;-74
2022/07/23 01:52:58;;;;;;;;;;;13.00;99.90;;;;;;5112444;28;20114;-75
2022/07/23 01:55:23;;;;;;;5.82;3.50;;;13.10;99.90;;;;;;5112772;28;20397;-75
2022/07/23 01:57:49;;;;;;;;;;;13.10;99.90;;;;;;5113109;28;20038;-74
2022/07/23 02:00:15;;;;;;;5.15;3.28;;;13.10;99.90;;;;;;5112265;28;20332;-74
2022/07/23 02:02:41;;;;;;;5.15;3.38;;;13.10;99.90;;;;;;5113205;28;20031;-73
2022/07/23 02:05:07;;;;;;;5.03;3.17;;;13.10;99.90;;;;;;5111583;28;20048;-74
2022/07/23 02:07:33;;;;;;;5.63;3.53;;;13.00;99.90;;;;;;5112115;28;20501;-75
2022/07/23 02:09:59;;;;;;;;;;;13.00;99.90;;;;;;5112750;28;20044;-74
2022/07/23 02:12:24;;;;;;;4.85;3.13;;;13.00;99.90;;;;;;5111899;28;19916;-74
2022/07/23 02:14:51;;;;;;;5.07;3.17;;;12.90;99.90;;;;;;5111418;28;20035;-74
2022/07/23 02:17:17;;;;;;;7.75;3.40;;;12.90;99.90;;;;;;5112926;28;20028;-75
2022/07/23 02:19:43;;;;;;;;;;;12.80;99.90;;;;;;5111622;28;20051;-75
2022/07/23 02:22:08;;;;;;;5.45;3.22;;;12.90;99.90;;;;;;5110830;28;19965;-75
2022/07/23 02:24:34;;;;;;;;;;;12.70;99.90;;;;;;5113059;28;20047;-74
2022/07/23 02:26:59;;;;;;;4.55;3.08;;;12.70;99.90;;;;;;5110995;28;19915;-74
2022/07/23 02:29:25;;;;;;;4.47;3.13;;;12.60;99.90;;;;;;5110550;28;20475;-74
2022/07/23 02:31:52;;;;;;;6.30;2.80;;;12.60;99.90;;;;;;5111154;28;20085;-74
2022/07/23 02:34:17;;;;;;;4.70;2.67;;;12.60;99.90;;;;;;5111379;28;20054;-74
2022/07/23 02:36:43;;;;;;;;;;;12.50;99.90;;;;;;5110927;28;20387;-74
2022/07/23 02:39:09;;;;;;;3.83;2.70;;;12.50;99.90;;;;;;5111956;28;20271;-73
2022/07/23 02:41:34;;;;;;;;;;;12.40;99.90;;;;;;5110662;28;20039;-74
2022/07/23 02:44:00;;;;;;;5.38;3.05;;;12.40;99.90;;;;;;5112405;28;20014;-73
2022/07/23 02:46:25;;;;;;;;;;;12.30;99.90;;;;;;5112590;28;20433;-72
2022/07/23 02:48:52;;;;;;;4.43;2.88;;;12.30;99.90;;;;;;5110489;28;20038;-74
2022/07/23 02:51:18;;;;;;;4.82;2.92;;;12.30;99.90;;;;;;5112369;28;20028;-73
2022/07/23 02:53:43;;;;;;;;;;;12.30;99.90;;;;;;5116974;28;20040;-75
2022/07/23 02:56:09;;;;;;;4.18;2.45;;;12.20;99.90;;;;;;5113831;28;20434;-74
2022/07/23 02:58:34;;;;;;;;;;;12.20;99.90;;;;;;5116885;27;20041;-74
2022/07/23 03:01:00;;;;;;;3.67;2.25;;;12.30;99.90;;;;;;5116016;28;19920;-74
2022/07/23 03:03:26;;;;;;;;;;;12.20;99.90;;;;;;5116517;28;20039;-74
2022/07/23 03:05:52;;;;;;;4.82;2.47;;;12.10;99.90;;;;;;5115688;28;19962;-73
2022/07/23 03:08:18;;;;;;;4.80;2.97;;;12.10;99.90;;;;;;5115385;28;20410;-74
2022/07/23 03:10:44;;;;;;;;;;;12.10;99.90;;;;;;5114364;28;20052;-74
2022/07/23 03:13:10;;;;;;;3.90;2.45;;;12.10;99.90;;;;;;5115997;28;19924;-74
2022/07/23 03:15:35;;;;;;;;;;;12.10;99.90;;;;;;5115129;28;20034;-74
2022/07/23 03:18:01;;;;;;;5.38;2.70;;;12.10;99.90;;;;;;5115104;28;20379;-74
2022/07/23 03:20:26;;;;;;;;;;;12.10;99.90;;;;;;5114091;28;20479;-74
2022/07/23 03:22:52;;;;;;;5.05;2.50;;;12.10;99.90;;;;;;5113673;28;19927;-74
2022/07/23 03:25:18;;;;;;;;;;;12.00;99.90;;;;;;5114033;28;20039;-74
2022/07/23 03:31:24;;;;;;;3.97;2.60;;;12.00;99.90;;;;;;5113061;28;20487;-74
2022/07/23 03:33:49;;;;;;;;;;;12.00;99.90;;;;;;5115395;28;20043;-73
2022/07/23 03:36:15;;;;;;;4.18;2.53;;;12.00;99.90;;;;;;5114079;28;20267;-74
2022/07/23 03:38:41;;;;;;;4.95;2.50;;;12.00;99.90;;;;;;5114736;28;20043;-74
2022/07/23 03:41:06;;;;;;;;;;;12.20;99.90;;;;;;5114131;28;20032;-74
2022/07/23 03:43:32;;;;;;;6.07;3.00;;;12.00;99.90;;;;;;5115192;27;20006;-73
2022/07/23 03:46:00;;;;;;;;;;;11.90;99.90;;;;;;5113437;28;20050;-73
2022/07/23 03:48:25;;;;;;;5.80;2.67;;;11.90;99.90;;;;;;5115468;28;20069;-74
2022/07/23 03:50:54;;;;;;;;;;;12.00;99.90;;;;;;5113763;28;20542;-73
2022/07/23 03:53:19;;;;;;;4.60;2.25;;;11.90;99.90;;;;;;5114690;28;20390;-73
2022/07/23 03:55:45;;;;;;;;;;;11.90;99.90;;;;;;5114092;28;20047;-72
2022/07/23 03:58:10;;;;;;;4.50;2.33;;;11.90;99.90;;;;;;5114698;28;19919;-73
2022/07/23 04:00:36;;;;;;;;;;;11.90;99.90;;;;;;5114885;28;20576;-73
2022/07/23 04:03:01;;;;;;;5.80;2.70;;;11.90;99.90;;;;;;5114476;28;19927;-73
2022/07/23 04:05:27;;;;;;;;;;;11.90;99.90;;;;;;5113356;28;20028;-75
2022/07/23 04:07:52;;;;;;;5.10;2.60;;;12.00;99.90;;;;;;5113070;28;20002;-74
2022/07/23 04:10:19;;;;;;;4.88;2.80;;;12.00;99.90;;;;;;5114596;28;20390;-75
2022/07/23 04:12:45;;;;;;;5.88;3.05;;;12.00;99.90;;;;;;5114745;28;20109;-74
2022/07/23 04:15:10;;;;;;;;;;;12.00;99.90;;;;;;5113133;28;20051;-74
2022/07/23 04:17:36;;;;;;;3.92;2.60;;;12.00;99.90;;;;;;5114545;28;19919;-74
2022/07/23 04:20:05;;;;;;;4.68;2.72;;;12.00;99.90;;;;;;5112093;28;20101;-74
2022/07/23 04:22:31;;;;;;;3.65;2.42;;;12.00;99.90;;;;;;5113481;28;20063;-73
2022/07/23 04:24:56;;;;;;;;;;;12.00;99.90;;;;;;5109317;28;20086;-74
2022/07/23 04:27:22;;;;;;;4.00;2.33;;;12.10;99.90;;;;;;5112442;28;19977;-74
2022/07/23 04:29:47;;;;;;;4.30;2.28;;;12.00;99.90;;;;;;5113359;28;20038;-74
2022/07/23 04:32:13;;;;;;;4.13;2.90;;;12.00;99.90;;;;;;5113838;28;20047;-74
2022/07/23 04:34:39;;;;;;;;;;;12.00;99.90;;;;;;5112793;28;20467;-74
2022/07/23 04:37:04;;;;;;;5.07;2.40;;;12.00;99.90;;;;;;5114279;28;20014;-75
2022/07/23 04:39:30;;;;;;;;;;;12.00;99.90;;;;;;5112896;28;20516;-75
2022/07/23 04:42:05;;;;;;;4.75;2.10;;;12.20;99.90;;;;;;5113633;27;20006;-74
2022/07/23 04:44:30;;;;;;;5.35;2.50;;;11.40;99.90;;;;;;5110909;28;20035;-75
2022/07/23 04:46:56;;;;;;;;;;;12.10;99.90;;;;;;5112932;28;20069;-74
2022/07/23 04:49:21;;;;;;;4.15;2.40;;;12.30;99.90;;;;;;5112405;28;19927;-74
2022/07/23 04:51:47;;;;;;;4.10;2.70;;;12.10;99.90;;;;;;5112895;28;20040;-75
2022/07/23 04:54:17;;;;;;;3.88;2.08;;;12.10;99.90;;;;;;5112403;28;20040;-74
2022/07/23 04:56:43;;;;;;;3.75;2.30;;;12.20;99.90;;;;;;5113651;28;20035;-74
2022/07/23 04:59:08;;;;;;;;;;;12.10;99.90;;;;;;5114173;28;20047;-75
2022/07/23 05:01:34;;;;;;;4.65;2.38;;;12.20;99.90;;;;;;5113923;27;19919;-74
2022/07/23 05:03:59;;;;;;;;;;;12.30;99.90;;;;;;5113596;27;20060;-74
2022/07/23 05:06:25;;;;;;;4.35;2.28;;;12.30;99.90;;;;;;5112378;28;19919;-74
2022/07/23 05:08:52;;;;;;;;;;;12.40;99.90;;;;;;5113777;28;20035;-74
2022/07/23 05:11:17;;;;;;;9.05;2.13;;;12.50;99.90;;;;;;5111941;28;19927;-74
2022/07/23 05:13:43;;;;;;;4.38;1.95;;;12.50;99.90;;;;;;5113671;28;20039;-74
2022/07/23 05:16:08;;;;;;;4.00;1.70;;;12.50;99.90;;;;;;5112906;27;20050;-74
2022/07/23 05:18:34;;;;;;;4.72;2.15;;;12.70;99.90;;;;;;5113041;28;20039;-74
2022/07/23 05:21:00;;;;;;;4.05;1.50;;;12.80;99.90;;;;;;5113164;28;20044;-75
2022/07/23 05:23:25;;;;;;;3.95;1.80;;;12.80;99.90;;;;;;5112788;28;20043;-74
2022/07/23 05:25:52;;;;;;;3.58;1.70;;;12.90;99.90;;;;;;5112919;28;20039;-74
2022/07/23 05:28:18;;;;;;;4.40;2.20;;;13.00;99.90;;;;;;5113277;28;20035;-74
2022/07/23 05:30:43;;;;;;;;;;;13.00;99.90;;;;;;5112189;28;20051;-74
2022/07/23 05:33:09;;;;;;;4.40;1.92;;;13.00;99.90;;;;;;5111630;28;20058;-74
2022/07/23 05:35:35;;;;;;;;;;;13.20;99.90;;;;;;5112148;28;20177;-74
2022/07/23 05:38:00;;;;;;;3.33;1.60;;;13.30;99.90;;;;;;5112295;28;20290;-74
2022/07/23 05:40:26;;;;;;;3.58;1.50;;;13.40;99.90;;;;;;5111839;28;20035;-74
2022/07/23 05:42:52;;;;;;;2.50;1.23;;;13.40;99.90;;;;;;5111299;28;20040;-74
2022/07/23 05:45:18;;;;;;;2.78;1.20;;;13.50;99.90;;;;;;5112329;28;20063;-75
2022/07/23 05:47:47;;;;;;;;;;;13.60;99.90;;;;;;5112695;28;20453;-75
2022/07/23 05:50:15;;;;;;;2.20;1.10;;;13.60;99.90;;;;;;5108252;28;20010;-74
2022/07/23 05:52:41;;;;;;;3.17;1.10;;;13.70;99.90;;;;;;5111324;28;20039;-74
2022/07/23 05:55:09;;;;;;;3.75;0.90;;;13.80;99.90;;;;;;5112543;28;20127;-75
2022/07/23 05:57:35;;;;;;;2.95;0.88;;;13.90;99.90;;;;;;5112705;28;20074;-75
2022/07/23 06:00:06;;;;;;;1.75;0.90;;;14.00;99.90;;;;;;5110459;28;20077;-75
2022/07/23 06:02:32;;;;;;;2.35;0.90;;;14.10;99.90;;;;;;5111975;28;20126;-74
2022/07/23 06:04:57;;;;;;;;;;;14.10;99.90;;;;;;5111373;28;20082;-75
2022/07/23 06:07:23;;;;;;;1.40;0.82;;;14.20;99.90;;;;;;5110883;28;19923;-75
2022/07/23 06:09:49;;;;;;;1.77;1.00;;;14.30;99.90;;;;;;5112860;28;20047;-75
2022/07/23 06:12:17;;;;;;;2.88;0.90;;;14.30;99.90;;;;;;5112448;28;20032;-75
2022/07/23 06:14:43;;;;;;;1.67;0.93;;;14.40;99.90;;;;;;5111760;28;20522;-76
2022/07/23 06:17:09;;;;;;;2.85;1.05;;;14.40;99.90;;;;;;5112358;28;20111;-76
2022/07/23 06:19:34;;;;;;;2.38;0.93;;;14.50;99.90;;;;;;5111783;28;20047;-76
2022/07/23 06:22:03;;;;;;;2.85;1.05;;;14.60;99.90;;;;;;5112014;28;20079;-74
2022/07/23 06:24:29;;;;;;;5.55;1.40;;;14.70;99.90;;;;;;5111578;28;20521;-74
2022/07/23 06:26:54;;;;;;;2.70;1.27;;;15.00;99.90;;;;;;5111343;28;20051;-74
2022/07/23 06:29:20;;;;;;;2.13;1.13;;;14.90;99.90;;;;;;5111287;28;20097;-73
2022/07/23 06:31:46;;;;;;;2.97;1.10;;;15.10;99.90;;;;;;5111572;28;20039;-75
2022/07/23 06:34:11;;;;;;;3.75;1.05;;;15.30;99.90;;;;;;5110222;28;20159;-73
2022/07/23 06:36:37;;;;;;;2.88;1.00;;;15.40;99.90;;;;;;5112144;28;20126;-74
2022/07/23 06:39:02;;;;;;;2.95;1.00;;;15.60;99.90;;;;;;5110602;28;20387;-73
2022/07/23 06:41:28;;;;;;;2.80;0.80;;;15.70;99.90;;;;;;5110424;28;20043;-80
2022/07/23 06:43:54;;;;;;;1.92;0.90;;;15.90;99.90;;;;;;5112310;28;20035;-74
2022/07/23 06:46:20;;;;;;;1.35;0.80;;;16.10;99.90;;;;;;5112494;28;20032;-77
2022/07/23 06:48:47;;;;;;;1.98;0.90;;;16.40;99.90;;;;;;5111885;28;20109;-75
2022/07/23 06:51:13;;;;;;;2.10;0.88;;;16.60;99.90;;;;;;5111803;28;20039;-77
2022/07/23 06:53:38;;;;;;;1.63;0.70;;;16.80;99.90;;;;;;5111163;28;20044;-77
2022/07/23 06:56:06;;;;;;;1.67;0.80;;;17.00;99.90;;;;;;5111494;28;20043;-77
2022/07/23 06:58:32;;;;;;;1.98;0.90;;;17.20;99.90;;;;;;5108598;28;20194;-77
2022/07/23 07:00:58;;;;;;;2.70;0.75;;;17.50;99.90;;;;;;5110168;28;20638;-77
2022/07/23 07:03:23;;;;;;;1.60;0.80;;;17.40;99.90;;;;;;5111665;28;20372;-77
2022/07/23 07:05:49;;;;;;;2.00;0.80;;;17.60;99.90;;;;;;5112509;28;20036;-77
2022/07/23 07:08:15;;;;;;;1.98;0.80;;;17.60;99.90;;;;;;5110731;28;20044;-76
2022/07/23 07:10:45;;;;;;;2.85;0.95;;;17.60;99.90;;;;;;5111879;28;20545;-77
2022/07/23 07:13:13;;;;;;;2.05;0.80;;;17.70;99.90;;;;;;5110514;28;20039;-76
2022/07/23 07:15:39;;;;;;;2.08;0.82;;;17.80;99.90;;;;;;5111919;28;20123;-77
2022/07/23 07:18:04;;;;;;;2.28;1.00;;;17.90;99.90;;;;;;5111334;28;20098;-76
2022/07/23 07:20:30;;;;;;;4.13;0.88;;;18.00;99.90;;;;;;5110881;28;20048;-77
2022/07/23 07:22:56;;;;;;;2.22;0.80;;;18.00;99.90;;;;;;5111018;28;20082;-73
2022/07/23 07:25:21;;;;;;;2.53;0.90;;;18.10;99.90;;;;;;5110893;28;20114;-72
2022/07/23 07:27:47;;;;;;;2.25;0.90;;;18.20;99.90;;;;;;5109844;28;20079;-72
2022/07/23 07:30:13;;;;;;;2.08;0.80;;;18.20;99.90;;;;;;5109847;28;20048;-71
2022/07/23 07:32:39;;;;;;;1.90;0.77;;;18.20;99.90;;;;;;5110411;28;20428;-75
2022/07/23 07:35:08;;;;;;;1.40;0.70;;;18.20;99.90;;;;;;5109603;28;20036;-73
2022/07/23 07:37:34;;;;;;;2.25;0.90;;;18.30;99.90;;;;;;5110587;28;20071;-76
2022/07/23 07:40:00;;;;;;;3.75;0.80;;;18.30;99.90;;;;;;5113698;28;20096;-74
2022/07/23 07:42:26;;;;;;;1.38;0.77;;;18.40;99.90;;;;;;5115574;28;20043;-74
2022/07/23 07:44:53;;;;;;;1.33;0.70;;;18.50;99.90;;;;;;5114752;28;20043;-75
2022/07/23 07:47:18;;;;;;;2.65;0.90;;;18.50;99.90;;;;;;5113842;28;20040;-75
2022/07/23 07:49:47;;;;;;;1.83;0.90;;;18.50;99.90;;;;;;5113802;28;20054;-74
2022/07/23 07:52:12;;;;;;;2.63;0.90;;;18.50;99.90;;;;;;5114459;28;20100;-74
2022/07/23 07:54:38;;;;;;;2.03;0.95;;;18.50;99.90;;;;;;5114078;28;20483;-75
2022/07/23 07:57:04;;;;;;;2.08;0.75;;;18.40;99.90;;;;;;5117643;28;20067;-76
2022/07/23 07:59:32;;;;;;;1.30;0.80;;;18.30;99.90;;;;;;5116334;28;20495;-75
2022/07/23 08:02:02;;;;;;;2.50;0.90;;;18.30;99.90;;;;;;5117314;28;20043;-74
2022/07/23 08:04:27;;;;;;;2.00;0.80;;;18.20;99.90;;;;;;5113873;28;20491;-75
2022/07/23 08:06:53;;;;;;;1.58;0.70;;;18.20;99.90;;;;;;5114220;28;20089;-75
2022/07/23 08:09:18;;;;;;;1.42;0.88;;;18.10;99.90;;;;;;5114091;28;20036;-74
2022/07/23 08:11:45;;;;;;;2.17;0.80;;;18.00;99.90;;;;;;5113819;28;20087;-79
2022/07/23 08:14:11;;;;;;;2.05;1.02;;;18.00;99.90;;;;;;5114438;28;20422;-74
2022/07/23 08:16:36;;;;;;;3.33;0.77;;;18.00;99.90;;;;;;5114823;28;20071;-74
2022/07/23 08:19:02;;;;;;;2.45;1.00;;;18.00;99.90;;;;;;5114124;28;20071;-74
2022/07/23 08:21:28;;;;;;;1.77;0.85;;;17.90;99.90;;;;;;5113304;28;20164;-74
2022/07/23 08:23:56;;;;;;;2.00;0.90;;;17.90;99.90;;;;;;5116463;28;20399;-74
2022/07/23 08:26:22;;;;;;;2.13;1.25;;;17.90;99.90;;;;;;5113559;28;20120;-74
2022/07/23 08:28:47;;;;;;;1.58;0.80;;;17.90;99.90;;;;;;5114056;28;20067;-74
2022/07/23 08:31:15;;;;;;;2.75;0.82;;;17.90;99.90;;;;;;5114632;28;20475;-76
2022/07/23 08:33:40;;;;;;;2.70;1.10;;;17.90;99.90;;;;;;5114016;28;20061;-75
2022/07/23 08:36:06;;;;;;;2.53;0.90;;;18.00;99.90;;;;;;5118377;28;20039;-77
2022/07/23 08:38:35;;;;;;;1.67;0.90;;;18.10;99.90;;;;;;5115973;28;20036;-77
2022/07/23 08:41:01;;;;;;;2.67;1.10;;;18.30;99.90;;;;;;5114219;28;20087;-77
2022/07/23 08:43:30;;;;;;;2.45;1.10;;;18.60;99.90;;;;;;5115135;28;20035;-77
2022/07/23 08:46:00;;;;;;;2.67;1.00;;;18.80;99.90;;;;;;5112629;28;20047;-75
2022/07/23 08:48:31;;;;;;;4.82;1.33;;;19.30;99.90;;;;;;5114474;28;20510;-78
2022/07/23 08:50:59;;;;;;;3.25;1.33;;;20.40;99.90;;;;;;5113333;28;20454;-75
2022/07/23 08:53:26;;;;;;;3.70;1.42;;;21.80;99.90;;;;;;5114354;28;20484;-76
2022/07/23 08:55:55;;;;;;;2.42;1.00;;;22.50;99.90;;;;;;5113609;28;20267;-75
2022/07/23 08:58:23;;;;;;;2.30;0.85;;;22.60;99.70;;;;;;5096464;28;20035;-75
2022/07/23 09:00:49;;;;;;;2.83;0.90;;;22.50;97.80;;;;;;5112972;28;20040;-75
2022/07/23 09:03:24;;;;;;;3.13;0.90;;;22.40;99.50;;;;;;5111586;28;20384;-76
2022/07/23 09:05:51;;;;;;;2.88;1.10;;;22.00;99.10;;;;;;5111799;28;20063;-79
2022/07/23 09:08:21;;;;;;;3.20;1.30;;;21.90;99.90;;;;;;5114153;28;20069;-73
2022/07/23 09:10:50;;;;;;;2.92;1.00;;;21.70;99.70;;;;;;5113370;28;20078;-77
2022/07/23 09:13:45;;;;;;;2.67;1.08;;;21.60;99.60;;;;;;5113604;27;20040;-76
2022/07/23 09:16:12;;;;;;;3.00;1.05;;;21.40;98.10;;;;;;5110194;28;20443;-74
2022/07/23 09:18:54;;;;;;;3.45;1.10;;;21.40;99.60;;;;;;5111068;28;20379;-76
2022/07/23 09:21:24;;;;;;;2.13;1.10;;;22.30;98.60;;;;;;5111773;28;20096;-78
2022/07/23 09:23:52;;;;;;;2.78;1.02;;;23.30;97.20;;;;;;5111135;28;20088;-74
2022/07/23 09:26:49;;;;;;;2.30;0.90;;;23.50;97.00;;;;;;5109603;28;20050;-73
2022/07/23 09:29:22;;;;;;;4.28;1.40;;;23.10;96.10;;;;;;5110594;28;20449;-74
2022/07/23 09:31:47;;;;;;;2.55;1.30;;;23.00;96.90;;;;;;5112259;28;20043;-75
2022/07/23 09:34:28;;;;;;;5.57;1.50;;;23.30;97.50;;;;;;5111441;28;20088;-75
2022/07/23 09:37:08;;;;;;;3.10;1.02;;;23.70;95.10;;;;;;5110296;28;20411;-75
2022/07/23 09:39:34;;;;;;;3.00;1.02;;;24.00;95.80;;;;;;5110950;28;20051;-76
2022/07/23 09:42:22;;;;;;;2.50;1.17;;;24.60;95.90;;;;;;5113196;28;20043;-77
2022/07/23 09:44:49;;;;;;;2.13;0.90;;;25.20;94.10;;;;;;5112498;28;20387;-76
2022/07/23 09:47:17;;;;;;;2.00;0.88;;;25.10;94.60;;;;;;5111322;28;20089;-77
2022/07/23 09:50:01;;;;;;;2.20;0.95;;;24.60;93.80;;;;;;5112172;28;20102;-76
2022/07/23 09:52:28;;;;;;;1.98;0.80;;;25.20;93.40;;;;;;5110682;28;20051;-76
2022/07/23 09:55:05;;;;;;;2.45;0.80;;;25.30;93.80;;;;;;5110174;28;20050;-75
2022/07/23 09:57:32;;;;;;;1.65;0.98;;;25.30;93.60;;;;;;5111614;28;20082;-77
2022/07/23 10:00:07;;;;;;;2.30;0.85;;;25.80;93.30;;;;;;5112083;28;20518;-81
2022/07/23 10:02:37;;;;;;;2.03;0.82;;;26.60;93.10;;;;;;5111718;28;20035;-78
2022/07/23 10:05:06;;;;;;;1.65;0.82;;;26.90;92.50;;;;;;5110553;28;20048;-84
2022/07/23 10:07:39;;;;;;;2.92;0.90;;;27.30;91.00;;;;;;5110315;28;20051;-74
2022/07/23 10:10:06;;;;;;;1.50;0.70;;;27.30;91.00;;;;;;5109763;28;20036;-74
2022/07/23 10:12:47;;;;;;;2.28;0.77;;;27.30;91.70;;;;;;5109859;28;20071;-74
2022/07/23 10:15:13;;;;;;;3.15;0.93;;;26.80;91.40;;;;;;5110078;28;20047;-73
2022/07/23 10:17:38;;;;;;;1.40;0.80;;;26.80;90.10;;;;;;5111435;28;20048;-74
2022/07/23 10:20:05;;;;;;;1.50;0.70;;;26.60;90.40;;;;;;5113762;28;20083;-74
2022/07/23 10:22:48;;;;;;;1.48;0.80;;;26.80;91.30;;;;;;5113471;28;20071;-74
2022/07/23 10:26:03;;;;;;;2.00;0.82;;;26.30;90.60;;;;;;5111326;28;20043;-75
2022/07/23 10:28:32;;;;;;;1.38;0.73;;;26.10;91.10;;;;;;5068263;28;20059;-85
2022/07/23 10:31:07;;;;;;;2.13;0.82;;;26.20;91.90;;;;;;5048543;28;20079;-77
2022/07/23 10:34:07;;;;;;;4.27;0.90;;;26.70;92.50;;;;;;5089601;28;20050;-79
2022/07/23 10:36:56;;;;;;;2.78;1.08;;;26.90;90.10;;;;;;5107583;28;20305;-79
2022/07/23 10:39:33;;;;;;;1.48;0.80;;;27.10;90.60;;;;;;5110326;28;20047;-78
2022/07/23 10:42:09;;;;;;;1.38;0.80;;;27.70;90.20;;;;;;5112162;28;20119;-77
2022/07/23 10:44:47;;;;;;;2.25;0.82;;;28.00;88.20;;;;;;5111423;28;20031;-81
2022/07/23 10:47:42;;;;;;;2.35;0.80;;;27.70;90.40;;;;;;5112255;28;20040;-80
2022/07/23 10:50:31;;;;;;;2.70;0.88;;;27.70;90.70;;;;;;5119564;28;20060;-79
2022/07/23 10:53:08;;;;;;;1.90;0.75;;;28.00;90.40;;;;;;5110499;28;20044;-76
2022/07/23 10:55:34;;;;;;;2.10;0.75;;;28.00;89.50;;;;;;5109182;28;20069;-79
2022/07/23 10:58:04;;;;;;;1.60;0.90;;;27.70;90.50;;;;;;5108618;28;20483;-88
2022/07/23 11:00:37;;;;;;;1.40;0.70;;;27.50;90.00;;;;;;5111149;28;20495;-77
2022/07/23 11:03:24;;;;;;;1.50;0.80;;;27.20;90.00;;;;;;5111760;28;20077;-82
2022/07/23 11:05:50;;;;;;;2.80;1.10;;;26.90;90.00;;;;;;5105397;28;20047;-85
2022/07/23 11:08:19;;;;;;;1.15;0.65;;;26.80;90.00;;;;;;5107602;28;20045;-84
2022/07/23 11:10:48;;;;;;;1.45;0.80;;;26.80;90.40;;;;;;5090860;28;20495;-86
2022/07/23 11:13:35;;;;;;;2.42;0.80;;;26.80;90.80;;;;;;5109099;28;20094;-86
2022/07/23 11:16:00;;;;;;;2.63;1.00;;;26.80;90.60;;;;;;5105607;28;20055;-83
2022/07/23 11:18:46;;;;;;;1.88;0.80;;;27.00;90.10;;;;;;5112890;28;20047;-87
2022/07/23 11:21:21;;;;;;;2.05;0.90;;;27.70;88.80;;;;;;5111117;28;20053;-81
2022/07/23 11:24:13;;;;;;;1.25;0.70;;;27.80;88.80;;;;;;5106473;28;20759;-90
2022/07/23 11:26:48;;;;;;;2.92;0.90;;;27.60;89.80;;;;;;5111405;28;20058;-78
2022/07/23 11:29:33;;;;;;;1.63;0.70;;;27.80;90.30;;;;;;5108836;28;20139;-80
2022/07/23 11:32:00;;;;;;;2.47;0.70;;;28.00;90.00;;;;;;5107714;28;20070;-77
2022/07/23 11:34:43;;;;;;;2.85;1.20;;;28.10;90.40;;;;;;5111540;28;20035;-78
2022/07/23 11:37:11;;;;;;;3.63;0.90;;;28.30;87.50;;;;;;5109098;28;20743;-79
2022/07/23 11:39:39;;;;;;;1.80;0.80;;;28.30;89.80;;;;;;5109553;28;20101;-79
2022/07/23 11:42:07;;;;;;;1.48;0.80;;;28.40;89.40;;;;;;5109117;28;20050;-77
2022/07/23 11:44:35;;;;;;;1.65;1.00;;;28.40;89.30;;;;;;5112218;28;20043;-82
2022/07/23 11:47:09;;;;;;;2.00;1.10;;;28.10;89.00;;;;;;5111668;28;20491;-79
2022/07/23 11:49:35;;;;;;;3.10;0.93;;;27.80;88.00;;;;;;5113984;28;20081;-78
2022/07/23 11:52:09;;;;;;;1.98;0.77;;;27.80;88.00;;;;;;5113808;28;20466;-77
2022/07/23 11:54:46;;;;;;;2.03;0.85;;;28.10;88.30;;;;;;5113632;28;20071;-78
2022/07/23 11:57:12;;;;;;;1.38;0.80;;;28.10;88.20;;;;;;5109957;28;20125;-79
2022/07/23 11:59:43;;;;;;;1.23;0.75;;;28.00;87.10;;;;;;5115488;28;20534;-81
2022/07/23 12:02:08;;;;;;;1.67;0.80;;;27.50;88.60;;;;;;5113745;28;20043;-88
2022/07/23 12:04:42;;;;;;;1.92;0.82;;;27.40;88.50;;;;;;5113831;28;20126;-80
2022/07/23 12:07:29;;;;;;;1.77;0.80;;;27.20;88.50;;;;;;5111884;28;20051;-81
2022/07/23 12:09:57;;;;;;;3.97;1.05;;;27.40;90.10;;;;;;5112845;28;20054;-76
2022/07/23 12:12:24;;;;;;;3.83;1.08;;;27.60;86.60;;;;;;5110596;28;20115;-75
2022/07/23 12:14:58;;;;;;;2.97;0.80;;;27.70;86.60;;;;;;5113909;27;20058;-75
2022/07/23 12:17:29;;;;;;;2.88;0.80;;;27.80;89.00;;;;;;5114701;28;20484;-78
2022/07/23 12:19:57;;;;;;;2.10;0.80;;;27.50;88.70;;;;;;5129316;28;20039;-78
2022/07/23 12:22:25;;;;;;;2.38;0.80;;;27.70;88.80;;;;;;5110664;28;20063;-73
2022/07/23 12:24:54;;;;;;;2.33;0.90;;;27.60;88.40;;;;;;5112029;28;20043;-75
2022/07/23 12:27:23;;;;;;;2.22;0.90;;;27.50;88.90;;;;;;5112412;28;20047;-75
2022/07/23 12:29:49;;;;;;;1.73;0.80;;;27.40;88.30;;;;;;5113767;28;20551;-79
2022/07/23 12:32:30;;;;;;;2.78;0.98;;;27.30;89.10;;;;;;5114135;28;20039;-79
2022/07/23 12:35:07;;;;;;;1.63;0.88;;;27.00;89.70;;;;;;5111962;28;20047;-75
2022/07/23 12:37:39;;;;;;;1.50;0.90;;;26.90;90.40;;;;;;5112384;28;20479;-76
2022/07/23 12:40:37;;;;;;;3.25;0.90;;;26.60;90.30;;;;;;5112018;28;20047;-75
2022/07/23 12:43:11;;;;;;;2.40;0.90;;;26.60;90.80;;;;;;5110154;28;20044;-74
2022/07/23 12:45:56;;;;;;;3.38;1.00;;;26.70;90.50;;;;;;5108174;28;20043;-72
2022/07/23 12:48:27;;;;;;;2.53;1.02;;;26.20;90.80;;;;;;5111425;28;20054;-76
2022/07/23 12:51:01;;;;;;;2.67;1.10;;;26.30;91.10;;;;;;5112725;28;20040;-74
2022/07/23 12:53:43;;;;;;;3.67;1.20;;;26.40;90.60;;;;;;5112063;28;20035;-76
2022/07/23 12:56:13;;;;;;;2.50;1.02;;;26.50;90.70;;;;;;5109147;28;20628;-75
2022/07/23 12:59:05;;;;;;;2.65;1.15;;;26.60;90.90;;;;;;5109310;28;20488;-74
2022/07/23 13:01:36;;;;;;;2.78;1.10;;;26.70;90.90;;;;;;5108734;28;20043;-75
2022/07/23 13:04:10;;;;;;;3.08;1.20;;;26.80;90.60;;;;;;5109183;28;20103;-76
2022/07/23 13:06:38;;;;;;;2.10;1.00;;;26.90;91.00;;;;;;5109576;28;20031;-77
2022/07/23 13:09:09;;;;;;;3.20;1.10;;;26.70;90.10;;;;;;5112192;28;20146;-74